createdAt,value
2022-12-20T00:01:52.780Z,5.00
2022-12-20T00:04:22.216Z,4.77
2022-12-20T00:06:50.126Z,4.80
2022-12-20T00:09:17.953Z,5.17
2022-12-20T00:11:45.789Z,5.30
2022-12-20T00:14:13.534Z,4.70
2022-12-20T00:16:41.411Z,4.67
2022-12-20T00:19:11.839Z,4.90
2022-12-20T00:21:41.008Z,4.40
2022-12-20T00:24:10.700Z,5.00
2022-12-20T00:26:38.600Z,5.20
2022-12-20T00:29:06.875Z,4.43
2022-12-20T00:31:35.279Z,4.37
2022-12-20T00:34:03.498Z,4.83
2022-12-20T00:36:33.096Z,4.67
2022-12-20T00:39:02.717Z,4.83
2022-12-20T00:41:33.904Z,4.17
2022-12-20T00:44:02.532Z,4.77
2022-12-20T00:46:31.737Z,5.00
2022-12-20T00:49:00.287Z,4.53
2022-12-20T00:51:30.305Z,4.33
2022-12-20T00:53:58.245Z,4.47
2022-12-20T00:56:28.074Z,4.27
2022-12-20T00:59:00.287Z,4.27
2022-12-20T01:01:31.545Z,4.57
2022-12-20T01:04:00.607Z,4.00
2022-12-20T01:06:29.924Z,3.97
2022-12-20T01:08:58.677Z,4.13
2022-12-20T01:11:30.850Z,4.60
2022-12-20T01:14:03.108Z,4.30
2022-12-20T01:16:34.466Z,4.33
2022-12-20T01:19:03.219Z,4.17
2022-12-20T01:21:31.387Z,4.27
2022-12-20T01:23:59.346Z,4.20
2022-12-20T01:26:30.202Z,3.90
2022-12-20T01:29:00.609Z,3.80
2022-12-20T01:31:30.376Z,4.23
2022-12-20T01:33:59.425Z,4.10
2022-12-20T01:36:30.694Z,3.97
2022-12-20T01:39:00.647Z,4.17
2022-12-20T01:41:31.700Z,3.60
2022-12-20T01:44:02.214Z,3.60
2022-12-20T01:46:33.606Z,4.00
2022-12-20T01:49:07.468Z,3.80
2022-12-20T01:51:40.794Z,3.90
2022-12-20T01:54:17.050Z,3.40
2022-12-20T01:59:44.201Z,3.43
2022-12-20T02:02:14.089Z,3.23
2022-12-20T02:04:42.112Z,3.43
2022-12-20T02:07:17.948Z,3.47
2022-12-20T02:09:47.435Z,3.78
2022-12-20T02:12:20.926Z,3.10
2022-12-20T02:15:07.666Z,3.00
2022-12-20T02:17:50.772Z,3.10
2022-12-20T02:20:50.943Z,3.37
2022-12-20T02:23:52.901Z,3.00
2022-12-20T02:27:06.119Z,2.97
2022-12-20T02:29:40.516Z,2.70
2022-12-20T02:32:22.655Z,2.80
2022-12-20T02:34:53.250Z,2.80
2022-12-20T02:37:21.697Z,3.50
2022-12-20T02:39:50.449Z,2.90
2022-12-20T02:42:25.542Z,2.80
2022-12-20T02:45:15.959Z,2.70
2022-12-20T02:47:53.653Z,2.90
2022-12-20T02:50:30.276Z,2.77
2022-12-20T02:53:00.151Z,3.10
2022-12-20T02:55:40.992Z,2.90
2022-12-20T02:58:21.368Z,2.87
2022-12-20T03:00:51.443Z,2.80
2022-12-20T03:03:24.922Z,2.73
2022-12-20T03:05:56.670Z,2.77
2022-12-20T03:08:26.151Z,2.80
2022-12-20T03:10:55.479Z,2.47
2022-12-20T03:13:25.891Z,2.90
2022-12-20T03:16:01.953Z,3.17
2022-12-20T03:18:31.313Z,3.17
2022-12-20T03:20:59.082Z,2.97
2022-12-20T03:23:26.988Z,2.70
2022-12-20T03:25:55.575Z,2.80
2022-12-20T03:28:35.226Z,2.80
2022-12-20T03:31:03.754Z,2.70
2022-12-20T03:33:37.946Z,2.87
2022-12-20T03:36:08.794Z,2.80
2022-12-20T03:38:37.640Z,2.60
2022-12-20T03:41:07.595Z,3.03
2022-12-20T03:43:35.412Z,2.80
2022-12-20T03:46:03.681Z,2.90
2022-12-20T03:48:36.009Z,2.83
2022-12-20T03:51:06.601Z,3.00
2022-12-20T03:53:34.573Z,2.87
2022-12-20T03:56:02.566Z,2.70
2022-12-20T03:58:30.861Z,2.70
2022-12-20T04:00:58.659Z,2.80
2022-12-20T04:03:47.329Z,2.67
2022-12-20T04:06:18.121Z,2.40
2022-12-20T04:08:46.858Z,2.70
2022-12-20T04:13:55.235Z,2.93
2022-12-20T04:16:28.397Z,3.00
2022-12-20T04:18:57.278Z,2.90
2022-12-20T04:21:31.114Z,3.20
2022-12-20T04:24:04.042Z,3.20
2022-12-20T04:26:57.908Z,3.33
2022-12-20T04:29:26.211Z,2.80
2022-12-20T04:31:54.197Z,2.80
2022-12-20T04:34:23.469Z,3.10
2022-12-20T04:36:52.675Z,3.30
2022-12-20T04:39:30.578Z,3.50
2022-12-20T04:42:17.642Z,3.23
2022-12-20T04:44:45.524Z,3.07
2022-12-20T04:47:15.552Z,3.40
2022-12-20T04:49:44.141Z,3.03
2022-12-20T04:52:32.086Z,3.60
2022-12-20T04:54:59.935Z,3.47
2022-12-20T04:57:32.611Z,3.60
2022-12-20T05:00:01.649Z,3.53
2022-12-20T05:02:29.977Z,3.40
2022-12-20T05:05:05.664Z,3.83
2022-12-20T05:07:40.650Z,3.87
2022-12-20T05:10:10.135Z,3.33
2022-12-20T05:12:40.681Z,3.80
2022-12-20T05:15:13.131Z,3.87
2022-12-20T05:17:41.622Z,3.60
2022-12-20T05:20:11.292Z,3.60
2022-12-20T05:23:00.790Z,3.57
2022-12-20T05:25:47.013Z,3.47
2022-12-20T05:28:16.701Z,3.83
2022-12-20T05:30:44.616Z,3.50
2022-12-20T05:33:12.982Z,3.73
2022-12-20T05:35:42.864Z,3.70
2022-12-20T05:38:14.983Z,3.60
2022-12-20T05:40:43.292Z,3.60
2022-12-20T05:43:12.531Z,3.60
2022-12-20T05:45:47.267Z,3.43
2022-12-20T05:48:19.078Z,3.73
2022-12-20T05:50:47.879Z,3.80
2022-12-20T05:53:27.333Z,3.57
2022-12-20T05:56:01.198Z,3.80
2022-12-20T05:58:35.145Z,3.70
2022-12-20T06:01:08.180Z,3.50
2022-12-20T06:03:40.558Z,3.60
2022-12-20T06:06:15.091Z,3.83
2022-12-20T06:08:48.144Z,3.70
2022-12-20T06:11:30.069Z,3.67
2022-12-20T06:14:10.777Z,3.67
2022-12-20T06:16:43.813Z,3.43
2022-12-20T06:19:19.222Z,3.77
2022-12-20T06:21:49.796Z,3.63
2022-12-20T06:24:25.424Z,3.63
2022-12-20T06:26:54.228Z,3.90
2022-12-20T06:29:24.544Z,3.90
2022-12-20T06:31:56.784Z,3.77
2022-12-20T06:34:24.811Z,3.63
2022-12-20T06:36:52.664Z,3.53
2022-12-20T06:39:26.920Z,3.60
2022-12-20T06:42:03.877Z,3.80
2022-12-20T06:44:31.961Z,4.00
2022-12-20T06:47:01.070Z,3.60
2022-12-20T06:49:29.867Z,3.67
2022-12-20T06:51:58.384Z,3.80
2022-12-20T06:57:14.911Z,3.60
2022-12-20T06:59:45.176Z,4.00
2022-12-20T07:02:13.655Z,3.70
2022-12-20T07:04:41.724Z,4.40
2022-12-20T07:07:09.571Z,4.40
2022-12-20T07:09:37.912Z,3.90
2022-12-20T07:12:07.968Z,4.23
2022-12-20T07:14:35.934Z,4.30
2022-12-20T07:17:07.594Z,4.47
2022-12-20T07:19:36.217Z,4.20
2022-12-20T07:22:05.701Z,4.33
2022-12-20T07:24:34.431Z,4.70
2022-12-20T07:27:02.638Z,4.53
2022-12-20T07:29:31.762Z,4.50
2022-12-20T07:32:00.287Z,4.40
2022-12-20T07:34:28.063Z,4.50
2022-12-20T07:36:56.108Z,4.50
2022-12-20T07:39:24.671Z,4.77
2022-12-20T07:41:54.158Z,4.50
2022-12-20T07:44:24.046Z,4.67
2022-12-20T07:46:53.283Z,4.80
2022-12-20T07:49:22.031Z,4.40
2022-12-20T07:51:55.404Z,4.37
2022-12-20T07:54:29.654Z,4.60
2022-12-20T07:57:04.354Z,4.57
2022-12-20T07:59:39.905Z,4.97
2022-12-20T08:04:42.115Z,4.30
2022-12-20T08:07:10.920Z,4.10
2022-12-20T08:09:44.543Z,4.00
2022-12-20T08:12:17.709Z,4.20
2022-12-20T08:14:46.299Z,4.10
2022-12-20T08:17:15.448Z,3.70
2022-12-20T08:19:43.378Z,4.30
2022-12-20T08:22:11.839Z,3.87
2022-12-20T08:24:40.573Z,4.63
2022-12-20T08:27:09.882Z,4.17
2022-12-20T08:29:37.748Z,3.80
2022-12-20T08:32:05.520Z,3.67
2022-12-20T08:34:34.597Z,3.90
2022-12-20T08:37:02.291Z,3.80
2022-12-20T08:39:30.356Z,4.03
2022-12-20T08:41:58.336Z,3.33
2022-12-20T08:44:26.149Z,3.63
2022-12-20T08:46:54.403Z,3.50
2022-12-20T08:49:22.374Z,3.30
2022-12-20T08:51:51.520Z,3.57
2022-12-20T08:54:19.468Z,3.50
2022-12-20T08:56:47.668Z,3.30
2022-12-20T08:59:15.407Z,3.23
2022-12-20T09:01:43.286Z,3.00
2022-12-20T09:04:11.476Z,2.90
2022-12-20T09:06:39.483Z,3.07
2022-12-20T09:09:08.572Z,3.00
2022-12-20T09:11:36.442Z,3.17
2022-12-20T09:14:04.160Z,3.47
2022-12-20T09:16:33.363Z,2.77
2022-12-20T09:19:05.846Z,2.90
2022-12-20T09:21:35.183Z,3.20
2022-12-20T09:24:03.235Z,2.87
2022-12-20T09:26:35.194Z,3.00
2022-12-20T09:29:03.940Z,3.13
2022-12-20T09:31:31.826Z,2.87
2022-12-20T09:34:00.900Z,2.90
2022-12-20T09:36:30.332Z,2.70
2022-12-20T09:38:58.281Z,2.80
2022-12-20T09:41:34.489Z,3.10
2022-12-20T09:44:14.203Z,2.90
2022-12-20T09:46:44.561Z,3.00
2022-12-20T09:49:18.487Z,2.70
2022-12-20T09:52:15.315Z,2.70
2022-12-20T09:54:55.986Z,2.53
2022-12-20T09:57:40.591Z,2.70
2022-12-20T10:00:14.462Z,2.80
2022-12-20T10:03:11.125Z,2.70
2022-12-20T10:05:41.780Z,2.63
2022-12-20T10:08:25.316Z,2.57
2022-12-20T10:10:57.401Z,2.70
2022-12-20T10:13:57.284Z,2.70
2022-12-20T10:16:40.089Z,2.67
2022-12-20T10:19:39.137Z,2.67
2022-12-20T10:22:17.640Z,2.70
2022-12-20T10:24:59.748Z,2.40
2022-12-20T10:27:28.199Z,2.67
2022-12-20T10:29:57.369Z,2.40
2022-12-20T10:32:27.308Z,2.43
2022-12-20T10:35:17.469Z,2.70
2022-12-20T10:38:08.737Z,2.30
2022-12-20T10:43:42.629Z,2.60
2022-12-20T10:46:14.790Z,2.83
2022-12-20T10:48:45.343Z,2.53
2022-12-20T10:51:17.231Z,2.63
2022-12-20T10:53:58.122Z,2.70
2022-12-20T10:56:29.059Z,2.57
2022-12-20T10:59:00.126Z,2.47
2022-12-20T11:01:34.263Z,2.50
2022-12-20T11:04:05.000Z,2.50
2022-12-20T11:06:45.106Z,2.50
2022-12-20T11:09:27.267Z,2.50
2022-12-20T11:12:02.400Z,2.50
2022-12-20T11:14:38.814Z,2.42
2022-12-20T11:17:29.411Z,2.40
2022-12-20T11:20:25.690Z,2.73
2022-12-20T11:23:13.830Z,2.50
2022-12-20T11:26:02.068Z,2.50
2022-12-20T11:28:49.497Z,2.03
2022-12-20T11:31:27.573Z,2.30
2022-12-20T11:34:12.810Z,2.53
2022-12-20T11:37:13.955Z,2.40
2022-12-20T11:40:05.305Z,2.10
2022-12-20T11:42:54.980Z,3.53
2022-12-20T11:45:35.085Z,2.40
2022-12-20T11:48:33.086Z,2.20
2022-12-20T11:51:17.388Z,2.40
2022-12-20T11:56:43.943Z,2.60
2022-12-20T11:59:20.756Z,2.40
2022-12-20T12:01:57.827Z,2.50
2022-12-20T12:04:30.451Z,2.20
2022-12-20T12:07:08.038Z,2.30
2022-12-20T12:09:42.813Z,2.50
2022-12-20T12:12:19.096Z,2.30
2022-12-20T12:14:59.782Z,2.67
2022-12-20T12:17:45.071Z,2.40
2022-12-20T12:20:33.127Z,2.53
2022-12-20T12:23:16.109Z,2.33
2022-12-20T12:25:43.941Z,2.53
2022-12-20T12:28:14.661Z,2.83
2022-12-20T12:30:53.679Z,3.85
2022-12-20T12:33:38.203Z,5.20
2022-12-20T12:36:35.820Z,5.80
2022-12-20T12:39:39.491Z,5.53
2022-12-20T12:42:33.563Z,4.53
2022-12-20T12:45:05.560Z,5.80
2022-12-20T12:47:45.738Z,6.50
2022-12-20T12:50:24.503Z,8.43
2022-12-20T12:52:56.220Z,9.83
2022-12-20T12:55:45.428Z,8.97
2022-12-20T12:58:33.823Z,8.60
2022-12-20T13:01:08.172Z,8.10
2022-12-20T13:04:06.298Z,8.33
2022-12-20T13:06:56.584Z,7.70
2022-12-20T13:09:41.950Z,7.50
2022-12-20T13:13:00.022Z,8.68
2022-12-20T13:15:52.655Z,8.07
2022-12-20T13:18:26.331Z,7.20
2022-12-20T13:21:38.333Z,7.67
2022-12-20T13:24:38.961Z,7.70
2022-12-20T13:27:23.486Z,7.53
2022-12-20T13:30:18.778Z,6.90
2022-12-20T13:33:22.712Z,7.03
2022-12-20T13:36:22.429Z,6.30
2022-12-20T13:38:57.560Z,6.70
2022-12-20T13:41:36.360Z,6.97
2022-12-20T13:44:26.721Z,7.27
2022-12-20T13:47:06.185Z,6.83
2022-12-20T13:49:39.963Z,7.27
2022-12-20T13:52:22.183Z,7.83
2022-12-20T13:54:54.781Z,7.90
2022-12-20T13:57:30.658Z,10.23
2022-12-20T14:00:07.251Z,8.80
2022-12-20T14:02:43.262Z,7.97
2022-12-20T14:07:55.918Z,7.03
2022-12-20T14:10:27.495Z,7.70
2022-12-20T14:12:56.981Z,7.97
2022-12-20T14:15:29.030Z,7.57
2022-12-20T14:18:06.050Z,9.90
2022-12-20T14:20:37.286Z,8.40
2022-12-20T14:23:12.426Z,7.97
2022-12-20T14:25:48.261Z,7.80
2022-12-20T14:28:29.787Z,7.60
2022-12-20T14:31:01.392Z,8.40
2022-12-20T14:33:36.328Z,9.43
2022-12-20T14:36:19.987Z,8.88
2022-12-20T14:38:50.638Z,17.30
2022-12-20T14:41:35.820Z,22.37
2022-12-20T14:44:17.255Z,18.48
2022-12-20T14:46:50.868Z,17.00
2022-12-20T14:49:25.717Z,31.67
2022-12-20T14:52:07.867Z,30.05
2022-12-20T14:57:39.935Z,34.08
2022-12-20T15:00:23.204Z,33.07
2022-12-20T15:02:59.752Z,30.77
2022-12-20T15:05:51.058Z,34.53
2022-12-20T15:08:23.567Z,30.07
2022-12-20T15:10:57.552Z,38.20
2022-12-20T15:13:32.091Z,25.13
2022-12-20T15:16:04.326Z,26.33
2022-12-20T15:18:33.047Z,33.73
2022-12-20T15:21:07.274Z,31.10
2022-12-20T15:23:36.124Z,44.87
2022-12-20T15:26:04.000Z,37.03
2022-12-20T15:28:32.676Z,48.13
2022-12-20T15:31:00.574Z,41.90
2022-12-20T15:33:33.416Z,30.83
2022-12-20T15:36:02.672Z,38.23
2022-12-20T15:38:54.928Z,38.13
2022-12-20T15:41:22.938Z,35.13
2022-12-20T15:43:55.200Z,40.03
2022-12-20T15:46:23.936Z,41.37
2022-12-20T15:48:51.980Z,32.57
2022-12-20T15:51:28.641Z,31.10
2022-12-20T15:53:56.709Z,27.53
2022-12-20T15:56:26.552Z,32.03
2022-12-20T15:58:55.209Z,32.53
2022-12-20T16:01:32.111Z,31.00
2022-12-20T16:04:06.501Z,27.87
2022-12-20T16:06:35.775Z,29.00
2022-12-20T16:09:03.725Z,27.67
2022-12-20T16:11:31.911Z,27.17
2022-12-20T16:14:00.612Z,28.47
2022-12-20T16:16:31.276Z,26.77
2022-12-20T16:18:59.197Z,27.63
2022-12-20T16:21:30.632Z,30.87
2022-12-20T16:24:00.323Z,32.20
2022-12-20T16:26:28.927Z,29.77
2022-12-20T16:28:57.849Z,31.87
2022-12-20T16:31:33.344Z,36.00
2022-12-20T16:34:04.431Z,32.55
2022-12-20T16:36:33.400Z,31.13
2022-12-20T16:39:02.628Z,40.90
2022-12-20T16:41:33.586Z,34.83
2022-12-20T16:44:05.649Z,28.23
2022-12-20T16:46:34.880Z,29.47
2022-12-20T16:49:02.808Z,28.83
2022-12-20T16:51:33.305Z,31.87
2022-12-20T16:54:21.794Z,30.37
2022-12-20T16:56:55.377Z,27.90
2022-12-20T16:59:24.305Z,26.57
2022-12-20T17:01:55.623Z,25.57
2022-12-20T17:04:25.024Z,26.50
2022-12-20T17:06:53.385Z,32.47
2022-12-20T17:09:22.649Z,28.27
2022-12-20T17:11:50.476Z,30.43
2022-12-20T17:14:19.839Z,32.03
2022-12-20T17:16:48.083Z,29.80
2022-12-20T17:19:16.446Z,30.53
2022-12-20T17:24:34.869Z,34.93
2022-12-20T17:27:03.056Z,38.83
2022-12-20T17:29:31.131Z,35.53
2022-12-20T17:32:00.044Z,33.20
2022-12-20T17:34:30.200Z,30.07
2022-12-20T17:36:58.501Z,37.33
2022-12-20T17:39:26.684Z,29.60
2022-12-20T17:41:56.276Z,33.03
2022-12-20T17:44:27.498Z,34.63
2022-12-20T17:46:57.715Z,30.80
2022-12-20T17:49:25.703Z,27.07
2022-12-20T17:51:53.837Z,32.47
2022-12-20T17:54:24.515Z,29.40
2022-12-20T17:56:53.620Z,27.07
2022-12-20T17:59:23.426Z,27.13
2022-12-20T18:01:51.437Z,26.07
2022-12-20T18:04:19.536Z,26.43
2022-12-20T18:06:47.482Z,28.27
2022-12-20T18:09:19.386Z,30.23
2022-12-20T18:11:47.993Z,26.40
2022-12-20T18:14:16.392Z,29.27
2022-12-20T18:16:45.962Z,31.43
2022-12-20T18:19:18.444Z,30.97
2022-12-20T18:21:46.348Z,32.43
2022-12-20T18:24:16.056Z,25.57
2022-12-20T18:26:44.830Z,30.17
2022-12-20T18:29:12.783Z,32.57
2022-12-20T18:31:40.757Z,36.90
2022-12-20T18:34:10.097Z,31.83
2022-12-20T18:36:37.956Z,31.37
2022-12-20T18:39:08.135Z,30.27
2022-12-20T18:41:35.883Z,28.27
2022-12-20T18:44:06.687Z,27.70
2022-12-20T18:46:34.677Z,31.30
2022-12-20T18:49:03.156Z,27.97
2022-12-20T18:51:40.815Z,33.40
2022-12-20T18:54:12.017Z,31.27
2022-12-20T18:56:40.648Z,36.40
2022-12-20T18:59:11.915Z,34.57
2022-12-20T19:01:42.427Z,32.10
2022-12-20T19:04:10.825Z,31.10
2022-12-20T19:06:40.216Z,32.47
2022-12-20T19:09:11.249Z,31.90
2022-12-20T19:11:39.854Z,34.47
2022-12-20T19:14:08.513Z,34.23
2022-12-20T19:16:39.526Z,32.30
2022-12-20T19:19:08.821Z,30.07
2022-12-20T19:21:40.263Z,35.23
2022-12-20T19:24:10.987Z,49.37
2022-12-20T19:26:39.844Z,60.53
2022-12-20T19:29:08.303Z,52.07
2022-12-20T19:31:38.130Z,46.63
2022-12-20T19:34:10.809Z,43.50
2022-12-20T19:36:41.698Z,49.47
2022-12-20T19:39:14.657Z,50.20
2022-12-20T19:41:42.995Z,38.30
2022-12-20T19:44:10.974Z,41.90
2022-12-20T19:46:39.073Z,48.40
2022-12-20T19:49:07.461Z,45.17
2022-12-20T19:51:35.181Z,56.03
2022-12-20T19:54:03.034Z,61.73
2022-12-20T19:56:35.847Z,64.20
2022-12-20T19:59:03.824Z,69.20
2022-12-20T20:01:31.877Z,58.27
2022-12-20T20:04:00.483Z,51.27
2022-12-20T20:06:28.494Z,70.50
2022-12-20T20:08:59.367Z,59.80
2022-12-20T20:11:28.562Z,67.63
2022-12-20T20:13:57.737Z,47.23
2022-12-20T20:16:26.307Z,53.50
2022-12-20T20:18:54.300Z,63.00
2022-12-20T20:21:23.886Z,44.63
2022-12-20T20:23:53.902Z,48.67
2022-12-20T20:26:24.310Z,43.80
2022-12-20T20:28:53.201Z,49.37
2022-12-20T20:31:22.646Z,43.40
2022-12-20T20:33:50.951Z,54.20
2022-12-20T20:36:23.103Z,64.50
2022-12-20T20:38:52.269Z,65.80
2022-12-20T20:41:20.416Z,48.83
2022-12-20T20:43:49.069Z,82.60
2022-12-20T20:46:18.095Z,55.10
2022-12-20T20:48:47.433Z,48.90
2022-12-20T20:51:16.633Z,63.67
2022-12-20T20:53:44.410Z,65.77
2022-12-20T20:56:12.316Z,50.80
2022-12-20T20:58:40.085Z,58.10
2022-12-20T21:01:09.078Z,42.33
2022-12-20T21:03:37.580Z,44.63
2022-12-20T21:08:56.454Z,62.07
2022-12-20T21:11:24.422Z,88.90
2022-12-20T21:13:53.931Z,95.57
2022-12-20T21:16:22.467Z,91.20
2022-12-20T21:18:51.523Z,99.27
2022-12-20T21:21:22.323Z,60.87
2022-12-20T21:23:50.917Z,44.33
2022-12-20T21:26:20.937Z,33.10
2022-12-20T21:28:48.882Z,33.00
2022-12-20T21:31:19.585Z,35.43
2022-12-20T21:33:47.870Z,36.27
2022-12-20T21:36:18.645Z,32.43
2022-12-20T21:38:50.679Z,33.33
2022-12-20T21:41:20.965Z,31.40
2022-12-20T21:43:48.825Z,30.47
2022-12-20T21:46:17.168Z,33.13
2022-12-20T21:48:45.392Z,33.03
2022-12-20T21:51:16.043Z,29.90
2022-12-20T21:53:46.841Z,30.60
2022-12-20T21:56:16.475Z,31.73
2022-12-20T21:58:45.201Z,29.90
2022-12-20T22:01:16.696Z,32.17
2022-12-20T22:03:45.450Z,27.83
2022-12-20T22:06:13.276Z,29.70
2022-12-20T22:08:41.053Z,29.73
2022-12-20T22:11:12.109Z,28.23
2022-12-20T22:13:42.466Z,29.17
2022-12-20T22:16:13.575Z,30.57
2022-12-20T22:18:42.872Z,28.10
2022-12-20T22:21:13.605Z,28.20
2022-12-20T22:23:41.832Z,21.10
2022-12-20T22:26:13.166Z,26.97
2022-12-20T22:28:47.418Z,28.53
2022-12-20T22:31:16.830Z,25.93
2022-12-20T22:33:45.481Z,24.73
2022-12-20T22:36:15.922Z,24.83
2022-12-20T22:38:44.860Z,27.47
2022-12-20T22:41:15.190Z,27.43
2022-12-20T22:43:46.631Z,29.03
2022-12-20T22:46:17.508Z,25.43
2022-12-20T22:48:46.971Z,23.67
2022-12-20T22:51:17.805Z,26.47
2022-12-20T22:53:47.536Z,25.83
2022-12-20T22:56:17.239Z,29.50
2022-12-20T22:58:46.644Z,29.70
2022-12-20T23:01:17.150Z,28.03
2022-12-20T23:03:45.456Z,28.67
2022-12-20T23:06:17.722Z,29.30
2022-12-20T23:08:47.428Z,24.43
2022-12-20T23:11:38.106Z,27.43
2022-12-20T23:14:31.817Z,25.83
2022-12-20T23:17:00.728Z,24.50
2022-12-20T23:19:48.957Z,24.90
2022-12-20T23:22:35.782Z,25.20
2022-12-20T23:25:04.583Z,26.60
2022-12-20T23:27:33.199Z,25.53
2022-12-20T23:30:02.562Z,26.87
2022-12-20T23:32:30.314Z,24.27
2022-12-20T23:34:58.047Z,24.83
2022-12-20T23:37:25.866Z,24.73
2022-12-20T23:39:53.658Z,22.07
2022-12-20T23:42:21.488Z,24.37
2022-12-20T23:44:49.329Z,24.73
2022-12-20T23:47:19.091Z,25.57
2022-12-20T23:49:47.021Z,25.47
2022-12-20T23:52:14.990Z,24.00
2022-12-20T23:54:42.752Z,24.90
2022-12-20T23:57:12.210Z,21.53
2022-12-20T23:59:40.088Z,25.10
